Time;durP1;ratioP1;P1;durP2;ratioP2;P2;SDS_P1;SDS_P2;PMS_P1;PMS_P2;Temp;Humidity;BMP_temperature;BMP_pressure;BME280_temperature;BME280_humidity;BME280_pressure;Samples;Min_cycle;Max_cycle;Signal;HPM_P1;HPM_P2
2022/04/07 05:24:31;;;;;;;8.47;4.40;;;;;;;8.66;94.97;98500.91;5296639;54;46201;-71
2022/04/07 05:29:38;;;;;;;7.87;4.42;;;;;;;8.68;94.91;98500.75;5073338;57;1130857;-71
2022/04/07 05:34:43;;;;;;;9.33;3.77;;;;;;;8.77;94.92;98506.39;5157854;56;1134826;-70
2022/04/07 05:39:48;;;;;;;6.57;3.80;;;;;;;8.89;94.57;98501.66;5185435;56;1134985;-71
2022/04/07 05:44:54;;;;;;;7.17;4.73;;;;;;;9.03;94.07;98498.43;5156383;56;1134855;-72
2022/04/07 05:50:00;;;;;;;5.90;3.80;;;;;;;9.12;93.33;98493.54;5083670;57;1135063;-71
2022/04/07 05:55:07;;;;;;;9.63;4.03;;;;;;;9.15;93.41;98482.68;5068329;58;1134922;-71
2022/04/07 06:00:17;;;;;;;10.23;3.70;;;;;;;9.23;93.68;98486.65;5056105;58;1134799;-71
2022/04/07 06:05:22;;;;;;;6.17;3.57;;;;;;;9.28;93.43;98477.77;5055330;58;1136945;-70
2022/04/07 06:10:28;;;;;;;5.37;4.00;;;;;;;9.36;92.71;98474.31;5055996;58;1134898;-75
2022/04/07 06:15:34;;;;;;;11.40;3.80;;;;;;;9.45;92.91;98466.77;5114351;57;1134873;-75
2022/04/07 06:20:41;;;;;;;4.57;3.17;;;;;;;9.56;91.92;98465.12;5142292;57;1137197;-76
2022/04/07 06:25:47;;;;;;;3.37;2.30;;;;;;;9.62;91.49;98462.34;5111248;57;1135119;-75
2022/04/07 06:30:54;;;;;;;7.70;2.53;;;;;;;9.69;91.25;98454.91;5090266;57;1134847;-79
2022/04/07 06:36:00;;;;;;;8.57;4.17;;;;;;;9.80;91.61;98451.94;5110140;58;1135166;-78
2022/04/07 06:41:06;;;;;;;7.93;2.73;;;;;;;9.97;90.66;98440.06;5110425;58;1135277;-78
2022/04/07 06:46:14;;;;;;;5.87;3.27;;;;;;;9.95;89.60;98432.30;5084818;58;1132794;-77
2022/04/07 06:51:19;;;;;;;6.73;3.93;;;;;;;10.10;89.82;98430.64;5064268;58;1132922;-80
2022/04/07 06:56:25;;;;;;;5.67;2.57;;;;;;;10.25;89.99;98414.97;5070445;58;1135092;-77
2022/04/07 07:01:30;;;;;;;5.90;2.45;;;;;;;10.47;88.62;98410.30;5063998;58;1134937;-74
2022/04/07 07:06:36;;;;;;;5.17;3.33;;;;;;;10.72;87.77;98399.13;5026652;59;1134833;-74
2022/04/07 07:11:41;;;;;;;8.10;3.50;;;;;;;10.90;88.31;98385.67;5033777;58;1134977;-76
2022/04/07 07:16:48;;;;;;;7.73;4.00;;;;;;;11.09;87.14;98387.06;5094981;57;1135184;-75
2022/04/07 07:21:56;;;;;;;6.63;3.70;;;;;;;11.19;87.35;98358.55;5110861;57;1134775;-77
2022/04/07 07:27:02;;;;;;;10.73;3.83;;;;;;;11.39;86.83;98366.36;5122203;57;1135111;-78
2022/04/07 07:32:09;;;;;;;20.70;6.20;;;;;;;11.57;85.70;98355.47;5165310;57;1136873;-85
2022/04/07 07:37:18;;;;;;;12.77;7.23;;;;;;;11.72;85.37;98351.03;5194879;57;1137187;-78
2022/04/07 07:42:25;;;;;;;8.13;4.60;;;;;;;11.80;84.39;98352.80;5171562;57;1136946;-79
2022/04/07 07:47:32;;;;;;;8.67;4.23;;;;;;;11.98;84.66;98351.97;5145047;57;1134988;-77
2022/04/07 07:52:38;;;;;;;4.62;3.50;;;;;;;12.19;84.96;98344.15;5124384;57;1134880;-78
2022/04/07 07:57:44;;;;;;;3.20;2.50;;;;;;;12.37;82.28;98337.66;5015969;58;1135390;-76
2022/04/07 08:02:52;;;;;;;25.13;7.67;;;;;;;12.46;81.66;98333.39;5107765;58;1134993;-77
2022/04/07 08:07:58;;;;;;;10.93;3.40;;;;;;;12.50;80.12;98325.40;5108711;58;1134973;-78
2022/04/07 08:13:04;;;;;;;16.40;5.40;;;;;;;12.55;80.99;98304.44;5108587;58;1134954;-75
2022/04/07 08:18:09;;;;;;;68.30;20.40;;;;;;;12.64;81.24;98303.84;5092218;57;21443;-79
2022/04/07 08:23:15;;;;;;;4.67;2.67;;;;;;;12.73;80.57;98315.97;5103352;56;1137349;-82
2022/04/07 08:28:22;;;;;;;7.30;3.83;;;;;;;12.79;78.85;98306.45;5149034;56;1136891;-80
2022/04/07 08:33:28;;;;;;;7.00;3.73;;;;;;;12.69;78.46;98309.39;5058949;58;1136945;-80
2022/04/07 08:38:34;;;;;;;12.27;5.30;;;;;;;12.66;79.54;98297.85;5058472;58;1137088;-73
2022/04/07 08:43:42;;;;;;;2.67;2.20;;;;;;;12.80;78.39;98303.63;5115306;57;1138952;-78
2022/04/07 08:48:47;;;;;;;3.97;2.03;;;;;;;13.11;78.48;98296.70;5148298;56;1136970;-75
2022/04/07 08:53:54;;;;;;;20.50;9.07;;;;;;;13.21;77.36;98295.08;5204825;56;1137247;-80
2022/04/07 08:59:01;;;;;;;3.55;2.90;;;;;;;13.19;76.40;98286.48;5135202;57;1139224;-75
2022/04/07 09:04:06;;;;;;;10.80;4.97;;;;;;;13.19;77.74;98268.72;5133537;57;1137391;-78
2022/04/07 09:09:22;;;;;;;2.60;2.40;;;;;;;13.28;75.85;98266.27;5082395;56;1138979;-82
2022/04/07 09:14:24;;;;;;;11.75;6.45;;;;;;;13.27;75.62;98250.53;5118328;56;1136865;-77
2022/04/07 09:19:34;;;;;;;3.73;3.00;;;;;;;13.34;76.13;98228.31;5115482;56;1139358;-77
2022/04/07 09:24:42;;;;;;;5.73;2.10;;;;;;;13.66;74.86;98213.63;5177005;56;1136883;-82
2022/04/07 09:29:48;;;;;;;5.30;2.67;;;;;;;13.79;73.42;98213.39;5083927;57;1137201;-79
2022/04/07 09:35:00;;;;;;;2.60;2.40;;;;;;;14.00;74.56;98198.70;5073051;57;1137487;-80
2022/04/07 09:40:11;;;;;;;4.23;2.73;;;;;;;14.29;73.03;98199.74;5135569;57;1136880;-78
2022/04/07 09:45:17;;;;;;;8.67;2.00;;;;;;;14.55;71.57;98200.36;5144917;57;1136920;-80
2022/04/07 09:50:31;;;;;;;2.87;1.70;;;;;;;14.41;70.06;98178.73;5135145;56;1136890;-76
2022/04/07 09:55:42;;;;;;;8.83;2.90;;;;;;;14.43;69.40;98188.16;5156977;56;1136988;-75
2022/04/07 10:00:48;;;;;;;5.87;2.53;;;;;;;14.52;68.67;98179.98;5139544;57;1137262;-73
2022/04/07 10:05:54;;;;;;;3.20;1.83;;;;;;;14.50;68.26;98154.13;5139433;57;1136922;-78
2022/04/07 10:11:00;;;;;;;2.43;1.60;;;;;;;14.63;68.98;98152.30;5126134;57;1136972;-78
2022/04/07 10:16:06;;;;;;;4.77;1.80;;;;;;;14.43;66.86;98124.33;5141455;57;1136957;-73
2022/04/07 10:21:20;;;;;;;5.07;1.70;;;;;;;14.38;68.57;98117.42;5106464;57;1136893;-76
2022/04/07 10:26:27;;;;;;;3.17;1.50;;;;;;;14.67;65.91;98110.95;5105373;57;1136996;-71
2022/04/07 10:31:33;;;;;;;10.73;2.87;;;;;;;14.80;65.57;98097.36;5092133;57;1137015;-77
2022/04/07 10:36:39;;;;;;;5.53;1.60;;;;;;;14.99;66.87;98090.67;5098088;57;1139509;-75
2022/04/07 10:41:47;;;;;;;5.00;1.97;;;;;;;14.84;64.75;98077.28;5100607;57;1137158;-74
2022/04/07 10:47:10;;;;;;;3.77;1.60;;;;;;;14.72;65.65;98066.45;5096980;57;1136933;-78
2022/04/07 10:52:28;;;;;;;2.63;1.40;;;;;;;14.77;65.73;98057.34;5156384;56;1134884;-73
2022/04/07 10:57:33;;;;;;;10.17;1.80;;;;;;;14.89;65.06;98051.70;5141047;57;1135033;-79
2022/04/07 11:02:39;;;;;;;3.07;1.43;;;;;;;14.87;64.69;98024.98;5118491;56;1136899;-74
2022/04/07 11:07:54;;;;;;;1.10;1.00;;;;;;;14.92;66.36;98028.67;5072043;57;1135246;-78
2022/04/07 11:13:02;;;;;;;2.77;1.57;;;;;;;14.76;63.98;98020.61;5038803;57;1135142;-74
2022/04/07 11:18:24;;;;;;;6.90;0.98;;;;;;;14.70;64.64;98021.41;4985690;57;1134914;-75
2022/04/07 11:23:53;;;;;;;0.87;0.87;;;;;;;14.58;64.17;98023.58;4943778;59;1134876;-76
2022/04/07 11:29:14;;;;;;;6.93;3.00;;;;;;;14.48;65.03;98005.38;4953519;59;1136963;-76
2022/04/07 11:34:40;;;;;;;5.87;2.90;;;;;;;14.44;64.54;98000.16;4998305;58;1136947;-73
2022/04/07 11:39:51;;;;;;;6.97;3.07;;;;;;;14.43;64.89;98009.98;4978534;59;1136977;-78
2022/04/07 11:45:01;;;;;;;2.10;1.90;;;;;;;14.39;65.50;97994.59;5000101;57;1136980;-74
2022/04/07 11:50:09;;;;;;;2.87;1.87;;;;;;;14.36;65.76;97967.89;5088858;57;1137203;-76
2022/04/07 11:55:17;;;;;;;3.57;2.37;;;;;;;14.37;66.13;97970.05;5080009;57;1137207;-78
2022/04/07 12:00:22;;;;;;;17.23;5.53;;;;;;;14.44;66.68;97960.27;5163612;56;1136932;-79
2022/04/07 12:05:30;;;;;;;6.87;1.53;;;;;;;14.88;65.88;97947.59;5142042;57;1139170;-74
2022/04/07 12:10:36;;;;;;;4.17;2.00;;;;;;;15.18;64.00;97917.80;5124306;57;1137175;-75
2022/04/07 12:15:42;;;;;;;11.93;4.00;;;;;;;15.36;63.83;97910.75;5092479;57;1136971;-76
2022/04/07 12:20:52;;;;;;;20.43;5.23;;;;;;;15.73;60.84;97908.32;5104342;56;1139089;-74
2022/04/07 12:26:02;;;;;;;15.40;5.50;;;;;;;16.05;58.45;97896.56;5108024;57;1139073;-74
2022/04/07 12:31:22;;;;;;;3.77;1.13;;;;;;;15.98;56.97;97910.48;5187408;56;1139083;-73
2022/04/07 12:36:36;;;;;;;16.27;6.13;;;;;;;15.87;57.85;97873.87;5214250;56;1137198;-74
2022/04/07 12:41:54;;;;;;;15.77;4.27;;;;;;;15.78;57.76;97858.66;5214082;56;1139048;-75
2022/04/07 12:47:05;;;;;;;13.10;5.27;;;;;;;15.77;58.91;97848.20;5207737;56;1139046;-74
2022/04/07 12:52:16;;;;;;;10.47;3.90;;;;;;;15.72;58.72;97844.88;5190493;56;1138992;-76
2022/04/07 12:57:21;;;;;;;18.17;4.30;;;;;;;15.71;58.41;97850.42;5141824;56;1139054;-74
2022/04/07 13:02:31;;;;;;;1.63;0.97;;;;;;;15.67;58.65;97818.06;5134240;57;1136991;-77
2022/04/07 13:07:37;;;;;;;8.13;4.17;;;;;;;15.63;58.27;97794.20;5146232;56;1134801;-75
2022/04/07 13:12:44;;;;;;;5.13;2.97;;;;;;;15.57;59.04;97797.77;5134285;56;1134892;-78
2022/04/07 13:17:50;;;;;;;7.43;2.23;;;;;;;15.57;58.95;97776.45;5160601;56;1134915;-75
2022/04/07 13:22:56;;;;;;;5.90;0.90;;;;;;;15.55;57.86;97769.67;5177760;56;1134885;-75
2022/04/07 13:28:02;;;;;;;9.80;1.10;;;;;;;15.67;57.60;97740.79;5155791;56;1135012;-75
2022/04/07 13:33:08;;;;;;;17.73;2.37;;;;;;;15.78;57.28;97728.59;5194156;56;1135142;-76
2022/04/07 13:38:14;;;;;;;12.13;1.20;;;;;;;15.91;57.35;97704.45;5114576;57;1136980;-75
2022/04/07 13:43:20;;;;;;;6.00;1.63;;;;;;;16.18;56.90;97673.00;5077520;57;1136998;-79
2022/04/07 13:48:27;;;;;;;6.73;1.13;;;;;;;16.38;58.31;97664.20;5078294;57;1135103;-75
2022/04/07 13:53:33;;;;;;;4.50;1.77;;;;;;;16.32;56.44;97663.79;5152132;57;1134860;-78
2022/04/07 13:58:39;;;;;;;10.93;0.90;;;;;;;16.11;56.15;97657.59;5189661;56;1134887;-77
2022/04/07 14:03:45;;;;;;;11.10;1.50;;;;;;;15.93;54.78;97662.92;5101917;57;1136952;-75
2022/04/07 14:08:51;;;;;;;3.17;1.43;;;;;;;15.71;54.74;97632.74;5177066;56;1136866;-72
2022/04/07 14:13:59;;;;;;;13.13;0.97;;;;;;;15.61;55.18;97636.94;5170491;56;1135109;-75
2022/04/07 14:19:04;;;;;;;10.60;2.67;;;;;;;15.52;55.52;97623.59;5154407;56;1137019;-79
2022/04/07 14:24:10;;;;;;;3.40;0.97;;;;;;;15.48;56.20;97590.73;5114968;57;1137015;-72
2022/04/07 14:29:16;;;;;;;2.77;1.00;;;;;;;15.37;56.90;97582.67;5098808;57;1132911;-72
2022/04/07 14:34:22;;;;;;;14.10;1.70;;;;;;;15.36;57.28;97573.05;5027897;58;1132907;-78
2022/04/07 14:39:30;;;;;;;2.63;0.93;;;;;;;15.35;57.00;97578.08;5037395;58;1138937;-71
2022/04/07 14:44:36;;;;;;;7.90;1.17;;;;;;;15.27;57.48;97559.74;5020251;58;1136883;-76
2022/04/07 14:49:42;;;;;;;24.57;12.13;;;;;;;15.17;58.85;97557.56;5019801;57;1137209;-75
2022/04/07 14:54:48;;;;;;;34.35;16.85;;;;;;;15.06;60.87;97591.58;4958968;57;1141059;-76
2022/04/07 14:59:54;;;;;;;16.20;9.40;;;;;;;14.93;62.44;97566.41;5028214;58;1141280;-75
2022/04/07 15:05:00;;;;;;;11.60;3.60;;;;;;;14.80;61.96;97561.22;5058683;57;1139042;-75
2022/04/07 15:10:07;;;;;;;20.40;8.67;;;;;;;14.70;63.10;97513.80;5114314;57;1138979;-79
2022/04/07 15:15:12;;;;;;;16.57;9.73;;;;;;;14.67;63.16;97519.55;5163701;56;1138962;-75
2022/04/07 15:20:20;;;;;;;10.20;2.37;;;;;;;14.66;63.39;97513.96;5152277;57;1139020;-75
2022/04/07 15:25:26;;;;;;;6.97;3.47;;;;;;;14.67;63.62;97512.91;5170176;56;1139086;-78
2022/04/07 15:30:31;;;;;;;5.60;1.47;;;;;;;14.67;64.40;97507.06;5161485;56;1137225;-76
2022/04/07 15:35:39;;;;;;;78.03;33.97;;;;;;;14.62;66.49;97504.78;5162318;56;1136983;-76
2022/04/07 15:40:45;;;;;;;29.43;18.13;;;;;;;14.36;70.31;97501.80;5167756;56;1141351;-79
2022/04/07 15:45:50;;;;;;;6.83;4.23;;;;;;;14.16;70.88;97497.95;5166954;56;1141187;-74
2022/04/07 15:50:56;;;;;;;8.90;5.27;;;;;;;13.96;73.01;97486.13;5154616;56;1136936;-77
2022/04/07 15:56:01;;;;;;;5.30;2.90;;;;;;;13.77;75.18;97462.33;5156856;56;1136987;-78
2022/04/07 16:01:07;;;;;;;3.00;1.50;;;;;;;13.60;76.11;97440.26;5043584;58;1137020;-77
2022/04/07 16:06:13;;;;;;;2.23;1.10;;;;;;;13.48;78.32;97418.59;5153293;56;1137083;-74
2022/04/07 16:11:20;;;;;;;7.43;4.00;;;;;;;13.37;78.35;97414.26;5111037;57;1137053;-73
2022/04/07 16:16:26;;;;;;;3.00;2.30;;;;;;;13.38;76.54;97372.61;5110391;57;1136955;-75
2022/04/07 16:21:33;;;;;;;31.87;12.53;;;;;;;13.38;76.54;97372.61;5150997;57;1136958;-77
2022/04/07 16:26:39;;;;;;;21.53;4.60;;;;;;;13.46;75.14;97354.27;5151481;57;1141344;-73
2022/04/07 16:31:45;;;;;;;39.42;12.30;;;;;;;13.59;72.72;97340.41;5152042;57;1139267;-73
2022/04/07 16:36:50;;;;;;;17.30;5.13;;;;;;;13.70;71.44;97329.59;5151606;57;1141105;-74
2022/04/07 16:41:56;;;;;;;13.93;4.13;;;;;;;13.81;70.21;97307.62;5152999;57;1139057;-75
2022/04/07 16:47:02;;;;;;;32.37;14.47;;;;;;;13.90;68.24;97302.33;5168005;56;1139312;-72
2022/04/07 16:52:07;;;;;;;11.50;4.00;;;;;;;13.95;69.09;97285.73;5195071;56;1141251;-75
2022/04/07 16:57:14;;;;;;;8.37;3.57;;;;;;;13.99;68.57;97305.02;5197549;56;1139050;-77
2022/04/07 17:02:20;;;;;;;6.70;3.03;;;;;;;14.04;67.99;97280.45;5197955;56;1136978;-71
2022/04/07 17:07:26;;;;;;;5.63;2.07;;;;;;;14.06;68.38;97288.48;5192007;56;1137019;-76
2022/04/07 17:12:32;;;;;;;12.60;3.20;;;;;;;13.97;71.84;97322.20;5194953;56;1136879;-74
2022/04/07 17:17:38;;;;;;;11.70;5.23;;;;;;;13.65;75.52;97339.53;5189341;56;1139128;-77
2022/04/07 17:22:47;;;;;;;10.13;5.70;;;;;;;13.31;79.94;97325.37;5188700;56;1139039;-77
2022/04/07 17:27:51;;;;;;;10.50;4.90;;;;;;;12.93;84.19;97316.08;5199748;56;1139032;-75
2022/04/07 17:32:59;;;;;;;10.57;3.83;;;;;;;12.75;86.23;97304.84;5201911;56;1139068;-75
2022/04/07 17:38:04;;;;;;;25.97;9.13;;;;;;;12.49;90.20;97312.40;5201455;55;1139119;-75
2022/04/07 17:43:15;;;;;;;4.20;2.57;;;;;;;12.36;91.76;97333.65;5170518;56;1139171;-84
2022/04/07 17:48:20;;;;;;;10.40;5.60;;;;;;;11.80;95.45;97515.49;5212162;56;1136978;-73
2022/04/07 17:53:26;;;;;;;2.63;1.60;;;;;;;9.74;96.74;97475.22;5203990;56;1136972;-74
2022/04/07 17:58:32;;;;;;;15.03;4.03;;;;;;;8.95;100.00;97459.30;5191763;55;1132963;-69
2022/04/07 18:03:38;;;;;;;10.90;3.93;;;;;;;8.78;100.00;97461.31;5188268;55;1137096;-69
2022/04/07 18:08:43;;;;;;;4.00;2.00;;;;;;;8.76;100.00;97458.54;5191061;56;1136941;-69
2022/04/07 18:13:49;;;;;;;6.45;2.60;;;;;;;8.74;100.00;97446.04;5190836;55;1134872;-69
2022/04/07 18:18:55;;;;;;;12.90;6.33;;;;;;;8.71;100.00;97493.83;5206108;55;1134804;-70
2022/04/07 18:24:01;;;;;;;28.53;15.60;;;;;;;8.72;100.00;97513.91;5207770;56;1137181;-69
2022/04/07 18:29:07;;;;;;;7.43;4.67;;;;;;;8.72;100.00;97442.27;5195384;55;1139113;-70
2022/04/07 18:34:13;;;;;;;5.47;2.87;;;;;;;8.71;100.00;97418.23;5221971;56;1135070;-69
2022/04/07 18:39:19;;;;;;;2.50;1.70;;;;;;;8.69;100.00;97471.64;5231420;56;1134842;-69
2022/04/07 18:44:25;;;;;;;5.40;2.10;;;;;;;8.71;100.00;97475.38;5211151;56;1134367;-69
2022/04/07 18:49:31;;;;;;;4.57;2.00;;;;;;;8.61;100.00;97511.72;5223813;56;1134894;-71
2022/04/07 18:54:36;;;;;;;4.70;1.93;;;;;;;8.63;100.00;97517.13;5192874;56;1135071;-70
2022/04/07 18:59:43;;;;;;;7.87;2.52;;;;;;;8.63;100.00;97501.33;5133959;56;1134914;-70
2022/04/07 19:04:49;;;;;;;6.97;2.97;;;;;;;8.56;100.00;97499.08;5156233;56;1134990;-71
2022/04/07 19:09:54;;;;;;;6.13;3.00;;;;;;;8.54;100.00;97491.06;5163435;56;1135042;-70
2022/04/07 19:15:00;;;;;;;5.17;2.73;;;;;;;8.47;100.00;97513.34;5166265;56;1134998;-70
2022/04/07 19:20:08;;;;;;;7.10;4.00;;;;;;;8.40;100.00;97517.70;5173192;56;1134888;-69
2022/04/07 19:25:13;;;;;;;2.37;1.77;;;;;;;8.34;100.00;97522.35;5229246;56;1135209;-70
2022/04/07 19:30:19;;;;;;;4.07;2.33;;;;;;;8.27;100.00;97527.47;5260474;55;1132985;-70
2022/04/07 19:35:25;;;;;;;6.53;3.10;;;;;;;8.25;100.00;97530.77;5219818;56;1180652;-70
2022/04/07 19:40:31;;;;;;;8.80;4.17;;;;;;;8.21;100.00;97535.27;5222641;55;1137013;-77
2022/04/07 19:45:38;;;;;;;8.33;2.87;;;;;;;8.12;100.00;97532.69;5235949;55;1137039;-77
2022/04/07 19:50:43;;;;;;;6.03;2.67;;;;;;;8.11;100.00;97547.34;5235067;56;1137070;-72
2022/04/07 19:55:49;;;;;;;3.13;2.10;;;;;;;8.06;100.00;97539.98;5206222;56;1136930;-74
2022/04/07 20:00:57;;;;;;;3.43;1.33;;;;;;;8.03;100.00;97552.67;5191490;56;1136904;-70
2022/04/07 20:06:03;;;;;;;3.20;2.30;;;;;;;7.97;100.00;97546.78;5174579;56;1137102;-70
2022/04/07 20:11:10;;;;;;;1.63;1.50;;;;;;;7.92;100.00;97555.23;5168177;56;1136939;-69
2022/04/07 20:16:16;;;;;;;4.67;2.53;;;;;;;7.86;100.00;97556.41;5169930;56;1137041;-70
2022/04/07 20:21:21;;;;;;;7.33;3.77;;;;;;;7.85;100.00;97550.33;5181117;56;1136915;-75
2022/04/07 20:26:29;;;;;;;6.13;4.13;;;;;;;7.81;100.00;97546.39;5171921;56;1136985;-73
2022/04/07 20:31:35;;;;;;;5.77;2.40;;;;;;;7.81;100.00;97539.81;5154224;56;1136937;-72
2022/04/07 20:36:43;;;;;;;9.80;4.07;;;;;;;7.79;100.00;97535.25;5123221;56;1136958;-76
2022/04/07 20:41:49;;;;;;;4.27;2.60;;;;;;;7.79;100.00;97524.73;5064951;57;1137127;-73
2022/04/07 20:46:54;;;;;;;7.03;3.37;;;;;;;7.80;100.00;97530.78;5132399;56;1136957;-72
2022/04/07 20:52:00;;;;;;;5.33;3.03;;;;;;;7.79;100.00;97539.20;5127519;56;1137697;-71
2022/04/07 20:57:06;;;;;;;6.03;3.17;;;;;;;7.81;100.00;97533.23;5107780;56;1136916;-76
2022/04/07 21:02:12;;;;;;;4.80;2.17;;;;;;;7.83;100.00;97535.70;5143406;56;1137207;-74
2022/04/07 21:07:18;;;;;;;6.47;3.00;;;;;;;7.82;100.00;97541.95;5137979;56;1137155;-74
2022/04/07 21:12:23;;;;;;;4.87;2.20;;;;;;;7.82;100.00;97537.52;5131266;57;1136975;-70
2022/04/07 21:17:29;;;;;;;8.45;2.62;;;;;;;7.82;100.00;97547.22;5131155;56;1136861;-71
2022/04/07 21:22:35;;;;;;;7.17;3.07;;;;;;;7.86;100.00;97562.98;5124512;56;1136920;-75
2022/04/07 21:27:41;;;;;;;3.80;2.67;;;;;;;7.87;100.00;97561.50;5123632;56;1136892;-71
2022/04/07 21:32:46;;;;;;;2.87;1.83;;;;;;;7.87;100.00;97557.55;5139678;56;1136984;-75
2022/04/07 21:37:53;;;;;;;4.67;2.30;;;;;;;7.86;100.00;97558.54;5140612;56;1137330;-75
2022/04/07 21:42:59;;;;;;;4.50;2.07;;;;;;;7.84;100.00;97558.39;5139520;56;1136984;-74
2022/04/07 21:48:06;;;;;;;35.03;11.00;;;;;;;7.84;100.00;97567.59;5131526;56;1137003;-72
2022/04/07 21:53:11;;;;;;;7.87;2.73;;;;;;;7.81;100.00;97571.88;5142513;56;1141102;-73
2022/04/07 21:58:17;;;;;;;4.53;2.30;;;;;;;7.81;100.00;97578.46;5144756;56;1136966;-72
2022/04/07 22:03:23;;;;;;;6.50;2.80;;;;;;;7.83;100.00;97577.80;5152021;56;1137072;-72
2022/04/07 22:08:29;;;;;;;3.10;1.40;;;;;;;7.83;100.00;97581.25;5156811;56;1137088;-73
2022/04/07 22:13:51;;;;;;;1.50;1.13;;;;;;;7.81;100.00;97587.67;5159870;56;1137038;-73
2022/04/07 22:18:57;;;;;;;5.27;1.93;;;;;;;7.82;100.00;97580.10;5201289;56;1137143;-74
2022/04/07 22:24:04;;;;;;;3.73;1.40;;;;;;;7.85;100.00;97587.16;5156482;56;1136879;-74
2022/04/07 22:29:09;;;;;;;31.60;13.73;;;;;;;7.84;100.00;97599.98;5164976;56;1136871;-71
2022/04/07 22:34:15;;;;;;;9.43;2.57;;;;;;;7.80;100.00;97597.87;5160116;56;1141117;-76
2022/04/07 22:39:20;;;;;;;6.07;2.33;;;;;;;7.80;100.00;97617.10;5161635;56;1136931;-73
2022/04/07 22:44:26;;;;;;;8.67;3.30;;;;;;;7.81;100.00;97612.17;5161646;57;1134865;-74
2022/04/07 22:49:35;;;;;;;4.20;1.30;;;;;;;7.80;100.00;97621.05;5151541;56;1134909;-74
2022/04/07 22:54:40;;;;;;;2.23;1.33;;;;;;;7.76;100.00;97622.41;5149663;57;1134869;-77
2022/04/07 22:59:46;;;;;;;1.83;1.33;;;;;;;7.72;100.00;97639.03;5149479;57;1134927;-75
2022/04/07 23:04:52;;;;;;;2.73;1.00;;;;;;;7.72;100.00;97640.34;5149274;57;1134840;-74
2022/04/07 23:09:58;;;;;;;2.70;1.60;;;;;;;7.70;100.00;97655.47;5149372;57;1135127;-74
2022/04/07 23:20:01;;;;;;;1.40;0.70;;;;;;;7.56;100.00;97707.97;5308959;55;46193;-71
2022/04/07 23:25:07;;;;;;;0.45;0.45;;;;;;;7.31;100.00;97668.59;5066905;57;1130721;-69
2022/04/07 23:30:13;;;;;;;3.20;0.50;;;;;;;7.06;100.00;97664.36;5066007;58;1134908;-73
2022/04/07 23:35:19;;;;;;;1.92;0.70;;;;;;;6.94;100.00;97630.22;5075349;58;1134839;-70
2022/04/07 23:40:25;;;;;;;2.23;0.93;;;;;;;6.93;100.00;97628.58;5075555;58;1134957;-73
2022/04/07 23:45:30;;;;;;;1.70;0.53;;;;;;;6.94;100.00;97620.53;5075328;58;1134737;-75
2022/04/07 23:50:36;;;;;;;0.60;0.43;;;;;;;6.93;100.00;97629.89;5075559;58;1134880;-72
2022/04/07 23:55:43;;;;;;;1.43;0.60;;;;;;;6.92;100.00;97633.50;4921895;59;1135028;-70
